Pelham, New Hampshire
Current Conditions -  °F | °C
As of 7:54 AM on Saturday 20 Dec 2014 (Local Time) from KLWM Reporting Station
Few Clouds Few Clouds  
Wind Chill: 25°   Ceiling: Unl
Heat Index: 25°   Visibility: 10mi
Dew Point: 18°   Wind: 3mph
Humidity: 75%   Direction: 330°NNW
Pressure: 30.31"   Gusts: NA
Location:  42.73°N, 71.32°W
Report Text: KLWM 201254Z 33003KT 10SM FEW022 M04/M08 A3031 RMK AO2 SLP265 T10391078
Loading
Personal Weather Stations






























Interactive Weather Map New forecast layout! Learn more

10-Day Weather Forecast

Advertisements
Track Severe Weather on mobile